• Join FlightAware (Why Join?)
  • Login
  • US Flag 
10:20PM EST


 

Airport Tracker/Info


-or-


 

Live Flight TrackerFlight Track Log ✈ AAL832 ✈ 06-Aug-2013 ✈ KORD - KMIA

Flight Track Log - Related Links

Times and Time Zones

All times are in EDT time to prevent confusion due to time zone crossing. See the AAL832 flight status page for this flight to view local times or setup timezone preferences in your user account.

Time Position Orientation Groundspeed Altitude Reporting Facility
EDT Latitude Longitude Course Direction KTS MPH feet Rate Location/Type
05:32PM 41.9620 -87.8900 216° Southwest 140 161  Level FlightAware
05:33PM 41.9470 -87.9070 220° Southwest 171 197 1,600 3,480 Climbing FlightAware
05:33PM 41.9380 -87.9110 198° South 177 204 2,100 1,980 Climbing FlightAware
05:33PM 41.9330 -87.9120 188° South 186 214 2,200 1,260 Climbing FlightAware
05:33PM 41.9140 -87.9100 176° South 211 243 2,700 1,980 Climbing FlightAware
05:34PM 41.8890 -87.9070 175° South 231 266 3,700 2,340 Climbing FlightAware
05:34PM 41.8690 -87.9050 176° South 251 289 4,300 1,980 Climbing FlightAware
05:34PM 41.8500 -87.9030 176° South 266 306 4,800 1,320 Climbing FlightAware
05:35PM 41.8260 -87.9000 175° South 275 316 5,100 600 Climbing FlightAware
05:35PM 41.8030 -87.8960 173° South 278 320 5,200 720 Climbing FlightAware
05:35PM 41.7860 -87.8880 161° South 282 325 5,500 2,220 Climbing FlightAware
05:36PM 41.7610 -87.8710 153° Southeast 291 335 6,400 2,820 Climbing FlightAware
05:36PM 41.7380 -87.8510 147° Southeast 297 342 7,400 2,820 Climbing FlightAware
05:36PM 41.7150 -87.8300 146° Southeast 303 349 8,300 2,820 Climbing FlightAware
05:37PM 41.6920 -87.8090 146° Southeast 305 351 9,300 2,580 Climbing FlightAware
05:37PM 41.6480 -87.7690 146° Southeast 322 371 10,800 2,460 Climbing FlightAware
05:38PM 41.6030 -87.7290 146° Southeast 333 383 12,300 2,640 Climbing FlightAware
05:38PM 41.5610 -87.6920 147° Southeast 338 389 13,800 2,820 Climbing FlightAware
05:39PM 41.5140 -87.6510 147° Southeast 343 395 15,500 2,520 Climbing FlightAware
05:39PM 41.4710 -87.6130 146° Southeast 350 403 16,700 1,920 Climbing FlightAware
05:40PM 41.3970 -87.5670 155° Southeast 353 406 18,500 1,800 Climbing FlightAware
05:41PM 41.3180 -87.5540 173° South 381 438 19,700 2,100 Climbing FlightAware
05:42PM 41.2530 -87.5420 172° South 384 442 21,100 2,280 Climbing FlightAware
05:42PM 41.2250 -87.5370 172° South 385 443 21,700 1,800 Climbing FlightAware
05:43PM 41.0970 -87.5050 169° South 404 465 23,700 1,680 Climbing FlightAware
05:44PM 41.0320 -87.4880 169° South 410 472 24,700 1,260 Climbing FlightAware
05:44PM 40.9600 -87.4690 169° South 427 491 25,300 780 Climbing FlightAware
05:45PM 40.8950 -87.4520 169° South 448 516 25,600 600 Climbing FlightAware
05:45PM 40.8220 -87.4320 168° South 466 536 26,000 1,020 Climbing FlightAware
05:46PM 40.7410 -87.4110 169° South 470 541 26,900 1,320 Climbing FlightAware
05:47PM 40.6710 -87.3920 168° South 476 548 27,600 1,140 Climbing FlightAware
05:47PM 40.6070 -87.3750 169° South 483 556 28,100 1,080 Climbing FlightAware
05:48PM 40.5140 -87.3500 168° South 492 566 28,900 1,140 Climbing FlightAware
05:48PM 40.4280 -87.3230 167° South 501 577 29,600 960 Climbing FlightAware
05:49PM 40.3640 -87.2930 160° South 505 581 30,100 1,200 Climbing FlightAware
05:50PM 40.2840 -87.2550 160° South 503 579 31,000 1,680 Climbing FlightAware
05:50PM 40.2030 -87.2170 160° South 495 570 32,100 1,560 Climbing FlightAware
05:51PM 40.1330 -87.1850 161° South 494 568 32,800 720 Climbing FlightAware
05:51PM 40.0520 -87.1470 160° South 495 570 33,000 120 Climbing FlightAware
05:52PM 39.9810 -87.1100 158° South 500 575 33,000  Level FlightAware
05:53PM 39.9090 -87.0520 148° Southeast 507 583 33,000 720 Level FlightAware
05:53PM 39.8380 -86.9920 147° Southeast 503 579 33,900 1,380 Climbing FlightAware
05:54PM 39.7690 -86.9350 148° Southeast 498 573 34,700 960 Climbing FlightAware
05:54PM 39.7060 -86.8820 147° Southeast 497 572 35,000 240 Climbing FlightAware
05:55PM 39.6390 -86.8250 147° Southeast 496 571 35,000  Level FlightAware
05:55PM 39.5660 -86.7650 148° Southeast 493 567 35,000  Level FlightAware
05:56PM 39.5000 -86.7090 147° Southeast 491 565 35,000  Level FlightAware
05:57PM 39.4390 -86.6580 147° Southeast 490 564 35,000  Level FlightAware
05:57PM 39.3720 -86.6030 148° Southeast 489 563 35,000  Level FlightAware
05:58PM 39.3090 -86.5510 147° Southeast 491 565 35,000 240 Level FlightAware
05:58PM 39.2370 -86.4920 148° Southeast 498 573 35,300 720 Climbing FlightAware
05:59PM 39.1680 -86.4350 147° Southeast 496 571 35,900 960 Climbing FlightAware
05:59PM 39.1020 -86.3810 148° Southeast 497 572 36,400 660 Climbing FlightAware
06:01PM 38.9810 -86.2820 148° Southeast 497 572 37,000 360 Climbing FlightAware
06:01PM 38.9100 -86.2240 148° Southeast 489 563 37,000  Level FlightAware
06:02PM 38.8300 -86.1600 148° Southeast 484 557 37,000  Level FlightAware
06:02PM 38.7700 -86.1110 148° Southeast 484 557 37,000  Level FlightAware
06:03PM 38.7410 -86.0880 148° Southeast 483 556 37,000  Level FlightAware
06:04PM 38.6180 -85.9890 148° Southeast 480 552 37,000  Level FlightAware
06:04PM 38.5520 -85.9350 147° Southeast 479 551 37,000  Level FlightAware
06:05PM 38.4830 -85.8800 148° Southeast 479 551 37,000  Level FlightAware
06:05PM 38.4200 -85.8290 148° Southeast 479 551 37,000  Level FlightAware
06:06PM 38.3510 -85.7740 148° Southeast 480 552 37,000  Level FlightAware
06:07PM 38.2800 -85.7170 148° Southeast 483 556 37,000  Level FlightAware
06:07PM 38.2200 -85.6700 148° Southeast 485 558 37,000  Level FlightAware
06:08PM 38.1550 -85.6180 148° Southeast 486 559 37,000  Level FlightAware
06:08PM 38.0820 -85.5610 148° Southeast 488 562 37,000  Level FlightAware
06:09PM 38.0230 -85.5140 148° Southeast 490 564 37,000  Level FlightAware
06:10PM 37.9510 -85.4570 148° Southeast 492 566 37,000  Level FlightAware
06:10PM 37.8810 -85.4020 148° Southeast 494 568 37,000  Level FlightAware
06:11PM 37.8120 -85.3470 148° Southeast 493 567 37,000  Level FlightAware
06:11PM 37.7648 -85.3105 149° Southeast 492 566 37,000  Level FlightAware ADS-B
06:12PM 37.6836 -85.2469 148° Southeast 492 566 37,000  Level FlightAware ADS-B
06:12PM 37.6245 -85.2008 148° Southeast 492 566 37,000  Level FlightAware ADS-B
06:13PM 37.5636 -85.1533 148° Southeast 492 566 37,000  Level FlightAware ADS-B
06:13PM 37.5031 -85.1062 148° Southeast 493 567 37,000  Level FlightAware ADS-B
06:14PM 37.4433 -85.0598 148° Southeast 494 568 37,000  Level FlightAware ADS-B
06:14PM 37.3834 -85.0134 148° Southeast 495 570 37,000  Level FlightAware ADS-B
06:15PM 37.3101 -84.9567 148° Southeast 495 570 37,000  Level FlightAware ADS-B
06:16PM 37.2511 -84.9112 148° Southeast 496 571 37,000  Level FlightAware ADS-B
06:16PM 37.1894 -84.8637 148° Southeast 496 571 37,000  Level FlightAware ADS-B
06:17PM 37.1264 -84.8153 149° Southeast 497 572 37,000  Level FlightAware ADS-B
06:17PM 37.0664 -84.7693 149° Southeast 497 572 37,000  Level FlightAware ADS-B
06:18PM 37.0055 -84.7227 149° Southeast 497 572 37,000  Level FlightAware ADS-B
06:18PM 36.9438 -84.6755 149° Southeast 497 572 37,000  Level FlightAware ADS-B
06:19PM 36.8829 -84.6289 149° Southeast 497 572 37,000  Level FlightAware ADS-B
06:19PM 36.8234 -84.5837 149° Southeast 495 570 37,000  Level FlightAware ADS-B
06:20PM 36.7647 -84.5392 149° Southeast 495 570 37,000  Level FlightAware ADS-B
06:20PM 36.7056 -84.4943 149° Southeast 494 568 37,000  Level FlightAware ADS-B
06:21PM 36.6469 -84.4499 149° Southeast 495 570 37,000  Level FlightAware ADS-B
06:21PM 36.5868 -84.4044 149° Southeast 494 568 37,000  Level FlightAware ADS-B
06:22PM 36.5264 -84.3589 149° Southeast 494 568 37,000  Level FlightAware ADS-B
06:22PM 36.4668 -84.3139 149° Southeast 495 570 37,000  Level FlightAware ADS-B
06:23PM 36.4064 -84.2686 149° Southeast 496 571 37,000  Level FlightAware ADS-B
06:23PM 36.3454 -84.2227 149° Southeast 495 570 37,000  Level FlightAware ADS-B
06:24PM 36.2729 -84.1684 149° Southeast 495 570 37,000  Level FlightAware ADS-B
06:24PM 36.2114 -84.1226 149° Southeast 494 568 37,000  Level FlightAware ADS-B
06:25PM 36.1518 -84.0781 149° Southeast 494 568 37,000  Level FlightAware ADS-B
06:25PM 36.0920 -84.0336 149° Southeast 494 568 37,000  Level FlightAware ADS-B
06:26PM 36.0283 -83.9862 149° Southeast 493 567 37,000  Level FlightAware ADS-B
06:27PM 35.9684 -83.9418 149° Southeast 494 568 37,000  Level FlightAware ADS-B
06:27PM 35.9095 -83.8992 150° Southeast 493 567 37,000  Level FlightAware ADS-B
06:27PM 35.8690 -83.8769 156° South 487 560 37,000  Level FlightAware ADS-B
06:28PM 35.8439 -83.8665 161° South 484 557 37,000  Level FlightAware ADS-B
06:28PM 35.7772 -83.8464 166° South 480 552 37,000  Level FlightAware ADS-B
06:29PM 35.7101 -83.8278 167° South 480 552 37,000  Level FlightAware ADS-B
06:29PM 35.6437 -83.8094 167° South 479 551 37,000  Level FlightAware ADS-B
06:30PM 35.5778 -83.7914 167° South 477 549 37,000  Level FlightAware ADS-B
06:30PM 35.5122 -83.7745 168° South 476 548 37,000  Level FlightAware ADS-B
06:31PM 35.4454 -83.7583 169° South 474 545 37,000  Level FlightAware ADS-B
06:31PM 35.3732 -83.7414 169° South 472 543 37,000  Level FlightAware ADS-B
06:32PM 35.3059 -83.7227 167° South 473 544 37,000  Level FlightAware ADS-B
06:32PM 35.2240 -83.6989 167° South 472 543 37,000  Level FlightAware ADS-B
06:33PM 35.1563 -83.6793 167° South 472 543 37,000  Level FlightAware ADS-B
06:33PM 35.0918 -83.6609 167° South 470 541 37,000  Level FlightAware ADS-B
06:34PM 35.0235 -83.6422 167° South 467 537 37,000  Level FlightAware ADS-B
06:34PM 34.9761 -83.6358 174° South 463 533 37,000  Level FlightAware ADS-B
06:35PM 34.9100 -83.6291 175° South 464 534 37,000  Level FlightAware ADS-B
06:35PM 34.8447 -83.6223 175° South 467 537 37,000  Level FlightAware ADS-B
06:35PM 34.8238 -83.6187 172° South 471 542 37,000  Level FlightAware ADS-B
06:36PM 34.7910 -83.6093 167° South 476 548 37,000  Level FlightAware ADS-B
06:36PM 34.7687 -83.6003 162° South 479 551 37,000  Level FlightAware ADS-B
06:37PM 34.6680 -83.5440 155° Southeast 482 555 37,000  Level FlightAware
06:37PM 34.6518 -83.5362 158° South 484 557 37,000  Level FlightAware ADS-B
06:37PM 34.5871 -83.5047 158° South 482 555 37,000  Level FlightAware ADS-B
06:38PM 34.5248 -83.4743 158° South 482 555 37,000  Level FlightAware ADS-B
06:38PM 34.4568 -83.4410 158° South 482 555 37,000  Level FlightAware ADS-B
06:39PM 34.3820 -83.4040 158° South 482 555 37,000  Level FlightAware
06:39PM 34.3320 -83.3800 158° South 482 555 37,000  Level FlightAware
06:40PM 34.2590 -83.3440 158° South 480 552 37,000  Level FlightAware
06:41PM 34.1890 -83.3090 158° South 479 551 37,000  Level FlightAware
06:41PM 34.1070 -83.2700 159° South 480 552 37,000  Level FlightAware
06:42PM 34.0660 -83.2500 158° South 481 554 37,000  Level FlightAware
06:43PM 33.9210 -83.1790 158° South 485 558 37,000 -120 Level FlightAware
06:43PM 33.8540 -83.1460 158° South 488 562 36,800 -360 Descending FlightAware
06:44PM 33.7770 -83.1090 158° South 488 562 36,600 -480 Descending FlightAware
06:44PM 33.7040 -83.0730 158° South 489 563 36,300 -540 Descending FlightAware
06:45PM 33.6290 -83.0370 158° South 488 562 36,000 -300 Descending FlightAware
06:46PM 33.5630 -83.0050 158° South 487 560 36,000  Level FlightAware
06:46PM 33.4870 -82.9700 159° South 483 556 36,000  Level FlightAware
06:47PM 33.4090 -82.9420 163° South 478 550 36,000  Level FlightAware
06:47PM 33.3360 -82.9180 165° South 476 548 36,000  Level FlightAware
06:48PM 33.2620 -82.8930 164° South 475 547 36,000  Level FlightAware
06:49PM 33.1920 -82.8700 165° South 474 545 36,000  Level FlightAware
06:49PM 33.1150 -82.8450 165° South 472 543 36,000  Level FlightAware
06:50PM 33.0420 -82.8210 165° South 471 542 36,000  Level FlightAware
06:50PM 32.9640 -82.7970 166° South 469 540 36,000  Level FlightAware
06:51PM 32.8900 -82.7730 165° South 469 540 36,000  Level FlightAware
06:52PM 32.8130 -82.7490 165° South 469 540 36,000  Level FlightAware
06:52PM 32.7130 -82.7140 164° South 469 540 36,000  Level FlightAware
06:53PM 32.6370 -82.6860 163° South 475 547 36,000  Level FlightAware
06:54PM 32.5370 -82.6510 164° South 474 545 36,000  Level FlightAware
06:54PM 32.4690 -82.6270 163° South 475 547 36,000  Level FlightAware
06:55PM 32.3820 -82.5960 163° South 476 548 36,000  Level FlightAware
06:56PM 32.2960 -82.5650 163° South 476 548 36,000  Level FlightAware
06:56PM 32.2310 -82.5420 163° South 476 548 36,000  Level FlightAware
06:57PM 32.1670 -82.5180 162° South 476 548 36,000  Level FlightAware
06:58PM 32.1000 -82.4950 164° South 476 548 36,000  Level FlightAware
06:58PM 32.0360 -82.4710 162° South 476 548 36,000  Level FlightAware
06:59PM 31.9720 -82.4480 163° South 476 548 36,000  Level FlightAware
06:59PM 31.9070 -82.4250 163° South 476 548 36,000  Level FlightAware
07:00PM 31.8700 -82.4110 162° South 476 548 36,000  Level FlightAware
07:00PM 31.8050 -82.3880 163° South 476 548 36,000  Level FlightAware
07:01PM 31.7390 -82.3640 163° South 476 548 36,000  Level FlightAware
07:02PM 31.6740 -82.3410 163° South 476 548 36,000  Level FlightAware
07:02PM 31.6310 -82.3260 163° South 476 548 36,000  Level FlightAware
07:03PM 31.5260 -82.2880 163° South 476 548 36,000  Level FlightAware
07:04PM 31.4610 -82.2650 163° South 476 548 36,000  Level FlightAware
07:04PM 31.3970 -82.2420 163° South 476 548 36,000  Level FlightAware
07:10PM 30.5370 -81.8120 157° South 477 549 36,000  Level FlightAware
07:11PM 30.4650 -81.7710 154° Southeast 478 550 36,000  Level FlightAware
07:11PM 30.3560 -81.7080 153° Southeast 480 552 36,000  Level FlightAware
07:12PM 30.2770 -81.6630 154° Southeast 480 552 36,000  Level FlightAware
07:13PM 30.2170 -81.6290 154° Southeast 481 554 36,000  Level FlightAware
07:13PM 30.1350 -81.5820 154° Southeast 482 555 36,000  Level FlightAware
07:14PM 30.0610 -81.5400 154° Southeast 483 556 36,000  Level FlightAware
07:15PM 29.9790 -81.4930 154° Southeast 483 556 36,000  Level FlightAware
07:15PM 29.9080 -81.4530 154° Southeast 482 555 36,000  Level FlightAware
07:16PM 29.8410 -81.4150 154° Southeast 482 555 36,000  Level FlightAware
07:16PM 29.7880 -81.3850 154° Southeast 482 555 36,000  Level FlightAware
07:17PM 29.7240 -81.3490 154° Southeast 482 555 36,000  Level FlightAware
07:17PM 29.6510 -81.3080 154° Southeast 483 556 36,000  Level FlightAware
07:19PM 29.4870 -81.2150 154° Southeast 483 556 36,000  Level FlightAware
07:19PM 29.4250 -81.1810 154° Southeast 483 556 36,000  Level FlightAware
07:20PM 29.3740 -81.1520 154° Southeast 483 556 36,000  Level FlightAware
07:20PM 29.3130 -81.1180 154° Southeast 483 556 36,000  Level FlightAware
07:21PM 29.2510 -81.0840 154° Southeast 483 556 36,000  Level FlightAware
07:22PM 29.1880 -81.0480 153° Southeast 483 556 36,000  Level FlightAware
07:23PM 29.0920 -80.9950 154° Southeast 483 556 36,000  Level FlightAware
07:23PM 28.9170 -80.9580 170° South 477 549 36,000  Level FlightAware
07:24PM 28.8500 -80.9310 161° South 484 557 36,000  Level FlightAware
07:24PM 28.7800 -80.9030 161° South 477 549 36,000  Level FlightAware
07:25PM 28.6920 -80.8680 161° South 486 559 36,000  Level FlightAware
07:25PM 28.6180 -80.8380 160° South 486 559 36,000  Level FlightAware
07:26PM 28.5380 -80.8060 161° South 485 558 36,000  Level FlightAware
07:27PM 28.4660 -80.7780 161° South 486 559 36,000  Level FlightAware
07:27PM 28.4010 -80.7520 161° South 486 559 36,000  Level FlightAware
07:28PM 28.3040 -80.7140 161° South 479 551 36,000  Level FlightAware
07:29PM 28.2330 -80.6860 161° South 479 551 36,000 -240 Level FlightAware
07:29PM 28.1670 -80.6600 161° South 482 555 35,800 -660 Descending FlightAware
07:30PM 28.0810 -80.6270 161° South 490 564 35,300 -1,080 Descending FlightAware
07:31PM 28.0400 -80.6130 163° South 492 566 34,200 -1,380 Descending FlightAware
07:31PM 27.8820 -80.5590 163° South 489 563 33,200 -1,140 Descending FlightAware
07:32PM 27.8050 -80.5330 163° South 489 563 32,700 -420 Descending FlightAware
07:32PM 27.7390 -80.5100 163° South 489 563 32,700 -3,480 Level FlightAware
07:33PM 27.6530 -80.4800 163° South 487 560 29,000 -3,900 Descending FlightAware
07:34PM 27.5560 -80.4400 160° South 479 551 28,000 -1,740 Descending FlightAware
07:34PM 27.4810 -80.4100 160° South 478 550 26,600 -2,400 Descending FlightAware
07:35PM 27.4050 -80.3790 160° South 462 532 25,100 -2,340 Descending FlightAware
07:35PM 27.3450 -80.3540 160° South 463 533 24,100 -960 Descending FlightAware
07:36PM 27.2630 -80.3210 160° South 446 513 24,000 -120 Descending FlightAware
07:37PM 27.2030 -80.2970 160° South 442 509 24,000  Level FlightAware
07:37PM 27.1260 -80.2650 160° South 447 514 24,000 -240 Level FlightAware
07:38PM 27.0570 -80.2380 161° South 425 489 23,700 -1,620 Descending FlightAware
07:38PM 27.0020 -80.2160 160° South 431 496 22,300 -2,820 Descending FlightAware
07:39PM 26.9340 -80.1890 161° South 428 493 20,700 -2,640 Descending FlightAware
07:39PM 26.8790 -80.1660 160° South 430 495 19,500 -2,520 Descending FlightAware
07:40PM 26.7750 -80.1250 161° South 414 476 17,200 -2,520 Descending FlightAware
07:41PM 26.7140 -80.1000 160° South 395 455 15,800 -3,000 Descending FlightAware
07:41PM 26.6590 -80.0830 165° South 406 467 14,000 -2,700 Descending FlightAware
07:42PM 26.6240 -80.0760 170° South 403 464 12,900 -2,580 Descending FlightAware
07:43PM 26.5320 -80.0610 172° South 376 433 11,000 -1,680 Descending FlightAware
07:43PM 26.4780 -80.0520 172° South 325 374 11,000  Level FlightAware
07:44PM 26.4260 -80.0430 171° South 309 356 11,000  Level FlightAware
07:44PM 26.3780 -80.0350 172° South 298 343 11,000 -180 Level FlightAware
07:45PM 26.3280 -80.0260 171° South 307 353 10,800 -600 Descending FlightAware
07:45PM 26.2880 -80.0390 196° South 300 345 10,400 -780 Descending FlightAware
07:46PM 26.2740 -80.0420 191° South 307 353 10,300 -480 Descending FlightAware
07:46PM 26.2060 -80.0440 182° South 303 349 10,000 -300 Descending FlightAware
07:47PM 26.1790 -80.0470 186° South 302 348 10,000 -780 Level FlightAware
07:47PM 26.1500 -80.0490 184° South 301 346 9,500 -1,380 Descending FlightAware
07:47PM 26.1170 -80.0530 186° South 298 343 9,000 -840 Descending FlightAware
07:48PM 26.0890 -80.0550 184° South 296 341 8,900 -1,080 Descending FlightAware
07:48PM 26.0620 -80.0580 186° South 298 343 8,300 -1,500 Descending FlightAware
07:48PM 26.0350 -80.0610 186° South 296 341 7,900 -1,260 Descending FlightAware
07:49PM 26.0020 -80.0640 185° South 291 335 7,400 -840 Descending FlightAware
07:49PM 25.9750 -80.0670 186° South 277 319 7,300 -600 Descending FlightAware
07:50PM 25.9500 -80.0700 186° South 265 305 7,000 -1,200 Descending FlightAware
07:50PM 25.9270 -80.0720 184° South 263 303 6,500 -1,740 Descending FlightAware
07:50PM 25.9070 -80.0740 185° South 260 299 6,000 -1,920 Descending FlightAware
07:51PM 25.8740 -80.0710 175° South 257 296 5,100 -1,920 Descending FlightAware
07:51PM 25.8590 -80.0700 177° South 256 295 4,700 -1,680 Descending FlightAware
07:51PM 25.8210 -80.0820 196° South 247 284 3,800 -1,440 Descending FlightAware
07:52PM 25.8160 -80.0910 238° Southwest 240 276 3,700 -780 Descending FlightAware
07:52PM 25.8130 -80.1000 250° West 233 268 3,600 -660 Descending FlightAware
07:52PM 25.8100 -80.1230 262° West 217 250 3,400 -1,020 Descending FlightAware
07:52PM 25.8090 -80.1470 267° West 204 235 2,900 -1,320 Descending FlightAware
07:53PM 25.8090 -80.1670 270° West 190 219 2,500 -1,260 Descending FlightAware
07:53PM 25.8080 -80.1840 266° West 179 206 2,100 -1,080 Descending FlightAware
07:53PM 25.8070 -80.1980 265° West 164 189 1,900 -1,320 Descending FlightAware
07:54PM 25.8070 -80.2150 270° West 151 174 1,300 -1,500 Descending FlightAware
07:54PM 25.8060 -80.2300 266° West 142 163 900 -1,320 Descending FlightAware
07:54PM 25.8050 -80.2430 265° West 141 162 500 -840 Descending FlightAware
07:55PM 25.8050 -80.2620 270° West 143 165 300 -480 Descending FlightAware
07:55PM 25.8040 -80.2750 265° West 142 163 -960 Descending FlightAware
07:55PM 25.8030 -80.2910 266° West 72 83  Level FlightAware